Redwood Falls Municipal Airport
KRWF : now visible

Airfield :











YOU CAN JOIN US ON...

 
LOGIN :

Register | Disclaimer

   EN    FR    IT 

 









Legend :    VFR   Marginal VFR   IFR   Intensive IFR   Very Intensive IFR
Visi :
Ceiling :
>= 8 km
>= 3000ft
5 to 8 km
1000 to 3000 ft
1500m to 5 km
500 to 1000 ft
800 to 1500m
200 to 500 ft
< 800m
< 200 ft
Symbols :   Thunderstorms  Fog  Heavy snow  Heavy precipitations  Wind > 20 kt






- Airport Elevation : 1024 ft


KRWF - Redwood Falls Municipal

CURRENT METAR :
  • 170253Z AUTO 11008KT 10SM OVC014 M05/M11 A2996 RMK AO2 SLP164 T10501106 58014

EXPIRED METARs :
  • 170229Z AUTO 11009KT 10SM OVC014 M05/M11 A2997 RMK AO2 T10501106
  • 170153Z AUTO 11010G17KT 10SM OVC016 M05/M11 A2998 RMK AO2 SLP169 T10501106
  • 170053Z AUTO 10008KT 10SM OVC015 M05/M11 A3000 RMK AO2 SLP176 T10501106
  • 170009Z AUTO 10009KT 10SM OVC014 M05/M12 A3000 RMK AO2 T10501117

TAF KRWF
Valid from the 17 at 00:00 until the 18 at 00:00 UTC


170009Z 1700/1724 11008KT P6SM BKN015
FM170600 12007KT P6SM OVC007
FM171100 VRB04KT 4SM -SHSN BR OVC004
PROB30 1712/1715 5SM -PLSN
FM171700 33008KT P6SM OVC007
FM172100 33010G19KT P6SM OVC010



MET'MAP, your aeronautical weather chart ! - Copyright ORBIFLY December 2007 - Disclaimer

ORBIFLY MET'MAP TEAM :

Programming & Development : Alexandra Zaïnal
Concept & original design : Baudouin d'Aumeries
Assistance for programming : Marc-Olivier Méhu
Technical & hardware support : Manuel Goepfert

Contact : metmap@orbifly.com




SOURCES & CREDITS :

   NOAA       Earth
Advisory